createdAt,value
2023-02-28T00:02:35.316Z,11.85
2023-02-28T00:14:35.331Z,11.84
2023-02-28T00:26:35.338Z,11.83
2023-02-28T00:38:35.434Z,11.83
2023-02-28T00:50:35.410Z,11.81
2023-02-28T01:02:35.335Z,11.79
2023-02-28T01:14:35.334Z,11.77
2023-02-28T01:26:35.427Z,11.75
2023-02-28T01:38:35.330Z,11.74
2023-02-28T01:50:36.200Z,11.74
2023-02-28T02:02:35.393Z,11.71
2023-02-28T02:14:35.392Z,11.71
2023-02-28T02:26:35.350Z,11.69
2023-02-28T02:38:35.407Z,11.68
2023-02-28T02:50:35.453Z,11.65
2023-02-28T03:02:35.491Z,11.65
2023-02-28T03:14:35.326Z,11.62
2023-02-28T03:26:35.360Z,11.62
2023-02-28T03:38:35.440Z,11.59
2023-02-28T03:50:35.339Z,11.58
2023-02-28T04:02:35.443Z,11.55
2023-02-28T04:14:35.334Z,11.54
2023-02-28T04:26:35.332Z,11.53
2023-02-28T04:38:35.368Z,11.53
2023-02-28T04:50:35.417Z,11.50
2023-02-28T05:02:35.433Z,11.48
2023-02-28T05:14:35.391Z,11.47
2023-02-28T05:26:35.341Z,11.48
2023-02-28T05:38:37.769Z,11.45
2023-02-28T05:50:35.325Z,11.44
2023-02-28T06:02:35.468Z,11.42
2023-02-28T06:14:35.457Z,11.41
2023-02-28T06:26:35.379Z,11.39
2023-02-28T06:38:35.328Z,11.39
2023-02-28T06:50:35.419Z,11.39
2023-02-28T07:02:35.407Z,11.39
2023-02-28T07:14:35.441Z,11.52
2023-02-28T07:26:35.383Z,11.60
2023-02-28T07:38:35.400Z,11.70
2023-02-28T07:50:35.399Z,11.59
2023-02-28T08:02:35.394Z,11.76
2023-02-28T08:14:35.342Z,11.84
2023-02-28T08:26:35.380Z,11.91
2023-02-28T08:38:35.344Z,11.93
2023-02-28T08:50:35.395Z,12.23
2023-02-28T09:02:35.402Z,12.41
2023-02-28T09:14:35.336Z,12.57
2023-02-28T09:26:43.158Z,12.74
2023-02-28T09:38:35.434Z,12.86
2023-02-28T09:50:35.439Z,12.83
2023-02-28T10:02:36.048Z,12.81
2023-02-28T10:14:35.423Z,12.80
2023-02-28T10:26:35.409Z,12.80
2023-02-28T10:38:35.328Z,12.78
2023-02-28T10:50:35.436Z,12.79
2023-02-28T11:02:35.730Z,12.79
2023-02-28T11:14:35.393Z,12.80
2023-02-28T11:26:35.326Z,12.80
2023-02-28T11:38:35.406Z,12.81
2023-02-28T11:50:35.346Z,12.85
2023-02-28T12:02:35.442Z,12.80
2023-02-28T12:14:35.399Z,12.79
2023-02-28T12:26:35.386Z,12.82
2023-02-28T12:38:35.364Z,12.76
2023-02-28T12:50:35.451Z,12.74
2023-02-28T13:02:35.378Z,12.74
2023-02-28T13:14:35.342Z,12.73
2023-02-28T13:26:35.332Z,12.72
2023-02-28T13:38:35.437Z,12.77
2023-02-28T13:50:35.335Z,12.84
2023-02-28T14:02:35.327Z,12.80
2023-02-28T14:14:35.410Z,12.81
2023-02-28T14:26:35.387Z,13.11
2023-02-28T14:38:35.388Z,12.96
2023-02-28T14:50:35.336Z,12.88
2023-02-28T15:02:35.405Z,12.89
2023-02-28T15:14:35.397Z,12.15
2023-02-28T15:26:35.359Z,12.11
2023-02-28T15:38:35.330Z,12.20
2023-02-28T15:50:35.324Z,12.18
2023-02-28T16:02:35.551Z,12.03
2023-02-28T16:14:35.336Z,12.07
2023-02-28T16:26:35.387Z,12.03
2023-02-28T16:38:35.329Z,11.99
2023-02-28T16:50:35.329Z,11.96
2023-02-28T17:02:35.498Z,11.93
2023-02-28T17:14:35.406Z,11.91
2023-02-28T17:26:35.389Z,11.93
2023-02-28T17:38:35.452Z,11.86
2023-02-28T17:50:35.446Z,11.88
2023-02-28T18:02:35.474Z,11.82
2023-02-28T18:14:35.438Z,11.81
2023-02-28T18:26:35.416Z,11.83
2023-02-28T18:38:35.323Z,11.77
2023-02-28T18:50:35.420Z,11.79
2023-02-28T19:02:35.385Z,11.73
2023-02-28T19:14:35.333Z,11.71
2023-02-28T19:26:35.447Z,11.72
2023-02-28T19:38:35.333Z,11.68
2023-02-28T19:50:35.425Z,12.24
2023-02-28T20:02:35.383Z,12.22
2023-02-28T20:14:35.400Z,12.21
2023-02-28T20:26:35.406Z,12.18
2023-02-28T20:38:35.411Z,12.16
2023-02-28T20:50:35.391Z,12.15
2023-02-28T21:02:35.404Z,12.13
2023-02-28T21:14:35.375Z,12.13
2023-02-28T21:26:35.348Z,12.11
2023-02-28T21:38:35.404Z,12.09
2023-02-28T21:50:35.401Z,12.08
2023-02-28T22:02:35.415Z,12.05
2023-02-28T22:14:35.450Z,12.05
2023-02-28T22:26:35.638Z,12.02
2023-02-28T22:38:35.440Z,12.01
2023-02-28T22:50:35.376Z,11.99
2023-02-28T23:02:35.385Z,11.98
2023-02-28T23:14:35.326Z,11.97
2023-02-28T23:26:35.328Z,11.95
2023-02-28T23:38:35.315Z,11.94
2023-02-28T23:50:35.330Z,11.91
